Terminal Aerodrome Forecast
Issued by NWS Cleveland, OH

Home | Current Version | Previous Version | Text Only | Print | Product List | Glossary Off
Versions: 1 2 3 4 5 6 7 8 9 10 11 12 13 14 15

365
FTUS41 KCLE 261726
TAFCAK
TAF
KCAK 261726Z 2618/2718 25010KT P6SM VCSH SCT015 OVC040
      TEMPO 2618/2620 3SM -RA BKN015 OVC040
     FM270200 24010KT P6SM SKC
     FM271500 24015G25KT P6SM SKC=

USA.gov is the U.S. government's official web portal to all federal, state and local government web resources and services.